createdAt,value
2019-01-16T00:00:13.157Z,991.02
2019-01-16T00:01:13.242Z,991.07
2019-01-16T00:02:13.331Z,991.11
2019-01-16T00:03:13.418Z,991.06
2019-01-16T00:04:13.506Z,991.03
2019-01-16T00:05:13.595Z,991.05
2019-01-16T00:06:13.681Z,991.01
2019-01-16T00:07:13.772Z,991.02
2019-01-16T00:08:13.857Z,991.08
2019-01-16T00:09:13.944Z,991.04
2019-01-16T00:10:14.037Z,991.01
2019-01-16T00:11:14.122Z,990.99
2019-01-16T00:12:14.215Z,991.03
2019-01-16T00:13:14.296Z,991.01
2019-01-16T00:14:14.387Z,990.98
2019-01-16T00:15:14.475Z,990.99
2019-01-16T00:16:14.565Z,990.94
2019-01-16T00:17:14.658Z,990.93
2019-01-16T00:18:17.186Z,990.93
2019-01-16T00:19:14.834Z,990.90
2019-01-16T00:20:14.911Z,990.92
2019-01-16T00:21:15.105Z,990.94
2019-01-16T00:22:15.076Z,990.93
2019-01-16T00:23:15.201Z,990.91
2019-01-16T00:24:15.247Z,990.92
2019-01-16T00:25:15.336Z,990.92
2019-01-16T00:26:15.426Z,990.93
2019-01-16T00:27:15.515Z,990.91
2019-01-16T00:28:15.607Z,990.93
2019-01-16T00:29:15.699Z,990.97
2019-01-16T00:30:15.780Z,990.98
2019-01-16T00:31:15.866Z,990.99
2019-01-16T00:32:15.955Z,990.98
2019-01-16T00:33:16.045Z,990.95
2019-01-16T00:34:16.132Z,990.94
2019-01-16T00:35:16.225Z,990.98
2019-01-16T00:36:16.313Z,990.94
2019-01-16T00:37:16.403Z,990.97
2019-01-16T00:38:16.492Z,990.97
2019-01-16T00:39:16.579Z,990.97
2019-01-16T00:40:16.670Z,990.90
2019-01-16T00:41:16.757Z,990.89
2019-01-16T00:42:16.848Z,990.87
2019-01-16T00:43:16.936Z,990.86
2019-01-16T00:44:17.024Z,990.86
2019-01-16T00:45:17.112Z,990.90
2019-01-16T00:46:17.202Z,990.87
2019-01-16T00:47:17.291Z,990.85
2019-01-16T00:48:24.401Z,990.85
2019-01-16T00:49:17.470Z,990.80
2019-01-16T00:50:17.559Z,990.78
2019-01-16T00:51:17.650Z,990.81
2019-01-16T00:52:17.738Z,990.81
2019-01-16T00:53:17.830Z,990.80
2019-01-16T00:54:17.925Z,990.81
2019-01-16T00:55:18.005Z,990.79
2019-01-16T00:56:18.092Z,990.80
2019-01-16T00:57:18.182Z,990.83
2019-01-16T00:58:18.273Z,990.82
2019-01-16T00:59:18.380Z,990.81
2019-01-16T01:00:18.450Z,990.79
2019-01-16T01:01:18.540Z,990.82
2019-01-16T01:02:18.626Z,990.84
2019-01-16T01:03:18.715Z,990.76
2019-01-16T01:04:18.802Z,990.83
2019-01-16T01:05:18.888Z,990.81
2019-01-16T01:06:18.977Z,990.77
2019-01-16T01:07:19.066Z,990.81
2019-01-16T01:08:19.156Z,990.78
2019-01-16T01:09:19.244Z,990.79
2019-01-16T01:10:19.331Z,990.74
2019-01-16T01:11:19.420Z,990.80
2019-01-16T01:12:19.509Z,990.77
2019-01-16T01:13:19.599Z,990.77
2019-01-16T01:14:19.688Z,990.77
2019-01-16T01:15:19.779Z,990.71
2019-01-16T01:16:19.867Z,990.70
2019-01-16T01:17:19.953Z,990.71
2019-01-16T01:18:20.046Z,990.70
2019-01-16T01:19:20.137Z,990.73
2019-01-16T01:20:20.226Z,990.74
2019-01-16T01:21:20.314Z,990.72
2019-01-16T01:22:20.400Z,990.73
2019-01-16T01:23:20.490Z,990.76
2019-01-16T01:24:20.581Z,990.72
2019-01-16T01:25:20.667Z,990.68
2019-01-16T01:26:20.753Z,990.73
2019-01-16T01:27:20.843Z,990.69
2019-01-16T01:28:20.932Z,990.73
2019-01-16T01:29:21.021Z,990.77
2019-01-16T01:30:21.112Z,990.74
2019-01-16T01:31:21.202Z,990.75
2019-01-16T01:32:21.327Z,990.72
2019-01-16T01:33:21.375Z,990.79
2019-01-16T01:34:21.596Z,990.79
2019-01-16T01:35:21.562Z,990.77
2019-01-16T01:36:21.648Z,990.78
2019-01-16T01:37:21.739Z,990.79
2019-01-16T01:38:21.823Z,990.77
2019-01-16T01:39:21.909Z,990.76
2019-01-16T01:40:21.999Z,990.72
2019-01-16T01:41:22.087Z,990.67
2019-01-16T01:42:22.178Z,990.64
2019-01-16T01:43:22.268Z,990.64
2019-01-16T01:44:22.455Z,990.70
2019-01-16T01:45:22.425Z,990.71
2019-01-16T01:46:22.512Z,990.67
2019-01-16T01:47:22.599Z,990.75
2019-01-16T01:48:22.687Z,990.75
2019-01-16T01:49:22.776Z,990.76
2019-01-16T01:50:22.865Z,990.78
2019-01-16T01:51:22.954Z,990.76
2019-01-16T01:52:23.043Z,990.78
2019-01-16T01:53:23.131Z,990.81
2019-01-16T01:54:23.219Z,990.76
2019-01-16T01:55:23.308Z,990.80
2019-01-16T01:56:23.398Z,990.70
2019-01-16T01:57:23.486Z,990.68
2019-01-16T01:58:23.578Z,990.62
2019-01-16T01:59:23.664Z,990.61
2019-01-16T02:00:23.757Z,990.62
2019-01-16T02:01:23.849Z,990.62
2019-01-16T02:02:23.936Z,990.58
2019-01-16T02:03:24.024Z,990.57
2019-01-16T02:04:24.112Z,990.60
2019-01-16T02:05:24.202Z,990.59
2019-01-16T02:06:24.286Z,990.61
2019-01-16T02:07:24.377Z,990.64
2019-01-16T02:08:24.469Z,990.62
2019-01-16T02:09:24.557Z,990.63
2019-01-16T02:10:24.645Z,990.62
2019-01-16T02:11:24.733Z,990.60
2019-01-16T02:12:24.824Z,990.62
2019-01-16T02:13:24.916Z,990.56
2019-01-16T02:14:25.004Z,990.59
2019-01-16T02:15:25.092Z,990.59
2019-01-16T02:16:25.180Z,990.63
2019-01-16T02:17:25.270Z,990.58
2019-01-16T02:18:25.359Z,990.58
2019-01-16T02:19:25.447Z,990.56
2019-01-16T02:20:25.535Z,990.58
2019-01-16T02:21:26.955Z,990.58
2019-01-16T02:24:09.746Z,990.54
2019-01-16T02:25:09.834Z,990.52
2019-01-16T02:26:09.921Z,990.51
2019-01-16T02:27:10.013Z,990.48
2019-01-16T02:28:10.107Z,990.48
2019-01-16T02:29:10.186Z,990.44
2019-01-16T02:30:10.276Z,990.43
2019-01-16T02:31:10.367Z,990.40
2019-01-16T02:32:10.456Z,990.36
2019-01-16T02:33:10.541Z,990.38
2019-01-16T02:34:10.632Z,990.41
2019-01-16T02:35:17.891Z,990.38
2019-01-16T02:36:10.858Z,990.40
2019-01-16T02:37:10.950Z,990.41
2019-01-16T02:38:11.044Z,990.42
2019-01-16T02:39:11.127Z,990.40
2019-01-16T02:40:11.216Z,990.40
2019-01-16T02:41:11.302Z,990.38
2019-01-16T02:42:11.390Z,990.34
2019-01-16T02:43:11.479Z,990.36
2019-01-16T02:44:11.570Z,990.40
2019-01-16T02:45:11.660Z,990.33
2019-01-16T02:46:11.748Z,990.30
2019-01-16T02:47:11.834Z,990.30
2019-01-16T02:48:11.926Z,990.28
2019-01-16T02:49:12.012Z,990.25
2019-01-16T02:50:12.098Z,990.23
2019-01-16T02:51:12.188Z,990.27
2019-01-16T02:52:12.278Z,990.23
2019-01-16T02:53:12.364Z,990.21
2019-01-16T02:54:12.459Z,990.23
2019-01-16T02:55:12.547Z,990.14
2019-01-16T02:56:12.640Z,990.19
2019-01-16T02:57:12.722Z,990.15
2019-01-16T02:58:12.815Z,990.19
2019-01-16T02:59:12.908Z,990.20
2019-01-16T03:00:13.003Z,990.21
2019-01-16T03:01:13.080Z,990.23
2019-01-16T03:02:13.195Z,990.24
2019-01-16T03:03:13.260Z,990.25
2019-01-16T03:04:13.350Z,990.21
2019-01-16T03:05:13.439Z,990.21
2019-01-16T03:06:13.527Z,990.20
2019-01-16T03:07:13.615Z,990.18
2019-01-16T03:08:13.706Z,990.19
2019-01-16T03:09:13.794Z,990.16
2019-01-16T03:10:13.884Z,990.20
2019-01-16T03:11:13.971Z,990.22
2019-01-16T03:12:14.061Z,990.22
2019-01-16T03:13:14.147Z,990.17
2019-01-16T03:14:14.235Z,990.21
2019-01-16T03:15:14.325Z,990.16
2019-01-16T03:16:14.415Z,990.17
2019-01-16T03:17:14.505Z,990.14
2019-01-16T03:18:14.594Z,990.15
2019-01-16T03:19:14.679Z,990.11
2019-01-16T03:20:14.769Z,990.09
2019-01-16T03:21:14.857Z,990.06
2019-01-16T03:22:14.957Z,990.10
2019-01-16T03:23:15.044Z,990.11
2019-01-16T03:24:15.131Z,990.05
2019-01-16T03:25:15.215Z,990.12
2019-01-16T03:26:15.295Z,990.10
2019-01-16T03:27:15.389Z,990.07
2019-01-16T03:28:15.476Z,990.04
2019-01-16T03:29:15.559Z,990.03
2019-01-16T03:30:15.663Z,990.00
2019-01-16T03:31:15.757Z,990.03
2019-01-16T03:32:15.824Z,990.04
2019-01-16T03:33:15.918Z,990.07
2019-01-16T03:34:16.004Z,990.02
2019-01-16T03:35:16.095Z,990.03
2019-01-16T03:36:16.182Z,990.07
2019-01-16T03:37:16.271Z,990.08
2019-01-16T03:38:16.358Z,990.02
2019-01-16T03:39:16.451Z,990.07
2019-01-16T03:40:16.537Z,990.07
2019-01-16T03:41:16.636Z,990.06
2019-01-16T03:42:16.736Z,990.05
2019-01-16T03:43:16.829Z,990.07
2019-01-16T03:44:16.915Z,990.03
2019-01-16T03:45:17.002Z,989.98
2019-01-16T03:46:17.093Z,990.03
2019-01-16T03:47:17.180Z,990.02
2019-01-16T03:48:17.269Z,989.98
2019-01-16T03:49:17.357Z,989.95
2019-01-16T03:50:17.448Z,989.98
2019-01-16T03:51:17.534Z,989.97
2019-01-16T03:52:17.629Z,989.98
2019-01-16T03:53:17.715Z,989.95
2019-01-16T03:54:17.802Z,990.02
2019-01-16T03:55:17.891Z,989.95
2019-01-16T03:56:17.982Z,989.92
2019-01-16T03:57:18.071Z,989.87
2019-01-16T03:58:18.157Z,989.93
2019-01-16T03:59:18.246Z,989.92
2019-01-16T04:00:18.336Z,989.93
2019-01-16T04:01:18.420Z,989.93
2019-01-16T04:02:18.508Z,989.87
2019-01-16T04:03:18.608Z,989.86
2019-01-16T04:04:18.678Z,989.82
2019-01-16T04:05:18.769Z,989.89
2019-01-16T04:06:18.907Z,989.85
2019-01-16T04:07:18.950Z,989.79
2019-01-16T04:08:19.032Z,989.77
2019-01-16T04:09:19.124Z,989.73
2019-01-16T04:10:19.209Z,989.73
2019-01-16T04:11:19.303Z,989.79
2019-01-16T04:12:19.389Z,989.71
2019-01-16T04:13:19.479Z,989.73
2019-01-16T04:14:19.563Z,989.74
2019-01-16T04:15:19.654Z,989.75
2019-01-16T04:16:19.744Z,989.75
2019-01-16T04:17:19.835Z,989.74
2019-01-16T04:18:19.923Z,989.71
2019-01-16T04:19:21.802Z,989.70
2019-01-16T04:20:20.100Z,989.70
2019-01-16T04:21:20.192Z,989.64
2019-01-16T04:22:20.280Z,989.66
2019-01-16T04:23:20.360Z,989.62
2019-01-16T04:24:20.461Z,989.64
2019-01-16T04:25:20.550Z,989.67
2019-01-16T04:26:20.638Z,989.64
2019-01-16T04:27:20.727Z,989.62
2019-01-16T04:28:20.812Z,989.59
2019-01-16T04:29:20.903Z,989.60
2019-01-16T04:30:20.985Z,989.62
2019-01-16T04:31:21.073Z,989.56
2019-01-16T04:32:21.163Z,989.54
2019-01-16T04:33:21.254Z,989.60
2019-01-16T04:34:21.338Z,989.56
2019-01-16T04:35:21.429Z,989.56
2019-01-16T04:36:21.522Z,989.55
2019-01-16T04:37:21.609Z,989.56
2019-01-16T04:38:21.699Z,989.54
2019-01-16T04:39:21.787Z,989.54
2019-01-16T04:40:21.875Z,989.52
2019-01-16T04:41:21.966Z,989.51
2019-01-16T04:42:22.056Z,989.48
2019-01-16T04:43:22.144Z,989.46
2019-01-16T04:44:22.228Z,989.46
2019-01-16T04:45:22.320Z,989.45
2019-01-16T04:46:22.479Z,989.49
2019-01-16T04:47:22.498Z,989.47
2019-01-16T04:48:22.588Z,989.45
2019-01-16T04:49:30.144Z,989.44
2019-01-16T04:50:22.765Z,989.44
2019-01-16T04:51:22.854Z,989.41
2019-01-16T04:52:22.941Z,989.44
2019-01-16T04:53:23.031Z,989.46
2019-01-16T04:54:23.121Z,989.41
2019-01-16T04:55:23.208Z,989.42
2019-01-16T04:56:23.306Z,989.44
2019-01-16T04:57:23.392Z,989.41
2019-01-16T04:58:23.480Z,989.43
2019-01-16T04:59:23.573Z,989.44
2019-01-16T05:00:23.667Z,989.41
2019-01-16T05:01:23.747Z,989.46
2019-01-16T05:02:23.840Z,989.41
2019-01-16T05:03:23.925Z,989.42
2019-01-16T05:04:24.011Z,989.42
2019-01-16T05:05:24.102Z,989.43
2019-01-16T05:06:24.189Z,989.40
2019-01-16T05:07:24.281Z,989.43
2019-01-16T05:08:24.370Z,989.39
2019-01-16T05:09:24.457Z,989.35
2019-01-16T05:10:24.547Z,989.33
2019-01-16T05:11:24.638Z,989.38
2019-01-16T05:12:24.727Z,989.32
2019-01-16T05:13:24.815Z,989.31
2019-01-16T05:14:24.905Z,989.30
2019-01-16T05:15:24.989Z,989.35
2019-01-16T05:16:25.090Z,989.29
2019-01-16T05:17:25.175Z,989.30
2019-01-16T05:18:25.253Z,989.30
2019-01-16T05:19:25.359Z,989.27
2019-01-16T05:20:25.446Z,989.25
2019-01-16T05:21:25.531Z,989.26
2019-01-16T05:22:25.620Z,989.23
2019-01-16T05:23:25.720Z,989.24
2019-01-16T05:24:25.803Z,989.26
2019-01-16T05:25:25.887Z,989.25
2019-01-16T05:26:27.712Z,989.23
2019-01-16T05:27:26.061Z,989.22
2019-01-16T05:28:26.142Z,989.21
2019-01-16T05:29:26.233Z,989.18
2019-01-16T05:30:26.314Z,989.21
2019-01-16T05:31:26.402Z,989.27
2019-01-16T05:32:26.499Z,989.19
2019-01-16T05:33:26.588Z,989.19
2019-01-16T05:34:35.315Z,989.17
2019-01-16T05:35:26.791Z,989.16
2019-01-16T05:36:35.518Z,989.20
2019-01-16T05:37:35.618Z,989.20
2019-01-16T05:38:27.084Z,989.22
2019-01-16T05:39:27.170Z,989.18
2019-01-16T05:40:27.261Z,989.15
2019-01-16T05:41:27.356Z,989.15
2019-01-16T05:42:27.444Z,989.10
2019-01-16T05:43:27.524Z,989.12
2019-01-16T05:44:27.614Z,989.11
2019-01-16T05:45:27.703Z,989.12
2019-01-16T05:46:36.433Z,989.10
2019-01-16T05:47:36.539Z,989.11
2019-01-16T05:48:28.003Z,989.16
2019-01-16T05:49:28.093Z,989.14
2019-01-16T05:50:28.181Z,989.14
2019-01-16T05:51:28.269Z,989.16
2019-01-16T05:52:28.356Z,989.14
2019-01-16T05:53:28.445Z,989.15
2019-01-16T05:54:28.538Z,989.10
2019-01-16T05:55:28.624Z,989.10
2019-01-16T05:56:28.708Z,989.08
2019-01-16T05:57:28.796Z,989.09
2019-01-16T05:58:28.911Z,989.06
2019-01-16T05:59:28.961Z,989.01
2019-01-16T06:00:29.049Z,989.01
2019-01-16T06:01:29.138Z,989.01
2019-01-16T06:02:29.228Z,989.02
2019-01-16T06:03:29.748Z,989.00
2019-01-16T06:04:29.406Z,989.05
2019-01-16T06:05:29.496Z,989.03
2019-01-16T06:06:29.584Z,989.00
2019-01-16T06:07:29.676Z,989.04
2019-01-16T06:08:29.768Z,989.00
2019-01-16T06:09:29.852Z,989.06
2019-01-16T06:10:29.947Z,989.02
2019-01-16T06:11:30.033Z,989.01
2019-01-16T06:12:30.151Z,988.98
2019-01-16T06:13:30.215Z,989.00
2019-01-16T06:14:30.298Z,989.01
2019-01-16T06:15:30.387Z,988.96
2019-01-16T06:16:30.478Z,989.01
2019-01-16T06:17:30.570Z,989.07
2019-01-16T06:18:30.659Z,989.02
2019-01-16T06:19:30.745Z,988.99
2019-01-16T06:20:30.843Z,988.99
2019-01-16T06:21:30.932Z,989.00
2019-01-16T06:22:31.021Z,989.03
2019-01-16T06:23:31.112Z,989.03
2019-01-16T06:24:31.201Z,989.01
2019-01-16T06:25:31.290Z,989.04
2019-01-16T06:26:31.388Z,988.98
2019-01-16T06:27:32.505Z,988.98
2019-01-16T06:28:31.559Z,988.98
2019-01-16T06:29:31.648Z,988.93
2019-01-16T06:30:31.737Z,988.94
2019-01-16T06:31:31.829Z,988.88
2019-01-16T06:32:31.920Z,988.89
2019-01-16T06:33:32.008Z,988.87
2019-01-16T06:34:32.100Z,988.83
2019-01-16T06:35:32.192Z,988.88
2019-01-16T06:36:32.281Z,988.86
2019-01-16T06:37:32.371Z,988.86
2019-01-16T06:38:32.465Z,988.88
2019-01-16T06:39:32.555Z,988.90
2019-01-16T06:40:32.646Z,988.91
2019-01-16T06:41:32.724Z,988.90
2019-01-16T06:42:32.822Z,988.88
2019-01-16T06:43:32.954Z,988.89
2019-01-16T06:44:32.996Z,988.89
2019-01-16T06:45:33.087Z,988.80
2019-01-16T06:46:33.178Z,988.78
2019-01-16T06:47:33.324Z,988.79
2019-01-16T06:48:33.346Z,988.79
2019-01-16T06:49:33.441Z,988.80
2019-01-16T06:50:33.533Z,988.79
2019-01-16T06:51:33.623Z,988.75
2019-01-16T06:52:33.714Z,988.78
2019-01-16T06:53:33.804Z,988.71
2019-01-16T06:54:33.893Z,988.75
2019-01-16T06:55:33.986Z,988.68
2019-01-16T06:56:34.071Z,988.71
2019-01-16T06:57:34.167Z,988.71
2019-01-16T06:58:34.255Z,988.70
2019-01-16T06:59:34.344Z,988.70
2019-01-16T07:00:34.432Z,988.64
2019-01-16T07:01:34.521Z,988.72
2019-01-16T07:02:34.612Z,988.67
2019-01-16T07:03:34.706Z,988.68
2019-01-16T07:04:34.797Z,988.71
2019-01-16T07:05:34.880Z,988.66
2019-01-16T07:06:34.969Z,988.68
2019-01-16T07:07:35.065Z,988.69
2019-01-16T07:08:35.153Z,988.67
2019-01-16T07:09:35.241Z,988.69
2019-01-16T07:10:35.369Z,988.66
2019-01-16T07:11:35.420Z,988.67
2019-01-16T07:12:35.507Z,988.70
2019-01-16T07:13:35.600Z,988.72
2019-01-16T07:14:35.690Z,988.72
2019-01-16T07:15:35.777Z,988.72
2019-01-16T07:16:35.869Z,988.64
2019-01-16T07:17:35.960Z,988.65
2019-01-16T07:18:36.051Z,988.65
2019-01-16T07:19:36.140Z,988.62
2019-01-16T07:20:36.231Z,988.61
2019-01-16T07:21:36.321Z,988.63
2019-01-16T07:22:36.405Z,988.59
2019-01-16T07:23:36.494Z,988.63
2019-01-16T07:24:36.585Z,988.63
2019-01-16T07:25:36.671Z,988.64
2019-01-16T07:26:36.763Z,988.65
2019-01-16T07:27:36.859Z,988.69
2019-01-16T07:28:36.950Z,988.67
2019-01-16T07:29:37.047Z,988.62
2019-01-16T07:30:37.140Z,988.63
2019-01-16T07:31:37.233Z,988.62
2019-01-16T07:32:37.325Z,988.65
2019-01-16T07:33:37.421Z,988.63
2019-01-16T07:34:37.515Z,988.67
2019-01-16T07:35:37.610Z,988.68
2019-01-16T07:39:21.828Z,988.79
2019-01-16T07:40:21.916Z,988.80
2019-01-16T07:41:22.011Z,988.78
2019-01-16T07:42:22.097Z,988.84
2019-01-16T07:43:22.189Z,988.84
2019-01-16T07:44:22.284Z,988.89
2019-01-16T07:45:22.367Z,988.84
2019-01-16T07:46:22.456Z,988.85
2019-01-16T07:47:22.546Z,988.88
2019-01-16T07:48:22.634Z,988.85
2019-01-16T07:49:22.728Z,988.84
2019-01-16T07:50:22.820Z,988.87
2019-01-16T07:51:22.894Z,988.91
2019-01-16T07:52:22.982Z,988.84
2019-01-16T07:53:23.074Z,988.88
2019-01-16T07:54:23.164Z,988.91
2019-01-16T07:55:23.295Z,988.88
2019-01-16T07:56:23.393Z,988.90
2019-01-16T07:57:23.483Z,988.89
2019-01-16T07:58:23.570Z,988.87
2019-01-16T07:59:23.655Z,988.86
2019-01-16T08:00:23.746Z,988.88
2019-01-16T08:01:23.834Z,988.93
2019-01-16T08:02:23.924Z,988.90
2019-01-16T08:03:24.016Z,988.94
2019-01-16T08:04:24.111Z,988.89
2019-01-16T08:05:24.193Z,988.87
2019-01-16T08:06:24.286Z,988.83
2019-01-16T08:07:24.374Z,988.83
2019-01-16T08:08:24.466Z,988.82
2019-01-16T08:09:24.553Z,988.81
2019-01-16T08:10:24.639Z,988.81
2019-01-16T08:11:24.730Z,988.79
2019-01-16T08:12:24.821Z,988.82
2019-01-16T08:13:24.911Z,988.83
2019-01-16T08:14:24.995Z,988.87
2019-01-16T08:15:25.079Z,988.80
2019-01-16T08:16:25.172Z,988.88
2019-01-16T08:17:25.265Z,988.95
2019-01-16T08:18:25.350Z,988.95
2019-01-16T08:19:25.438Z,988.96
2019-01-16T08:20:25.528Z,988.96
2019-01-16T08:21:25.626Z,988.95
2019-01-16T08:22:25.715Z,988.93
2019-01-16T08:23:25.805Z,988.95
2019-01-16T08:24:25.891Z,988.98
2019-01-16T08:25:25.991Z,988.92
2019-01-16T08:26:26.071Z,988.94
2019-01-16T08:27:26.167Z,988.96
2019-01-16T08:28:26.269Z,988.91
2019-01-16T08:29:26.359Z,988.90
2019-01-16T08:30:26.447Z,988.87
2019-01-16T08:31:26.537Z,988.88
2019-01-16T08:32:26.621Z,988.89
2019-01-16T08:33:26.718Z,988.88
2019-01-16T08:34:26.808Z,988.88
2019-01-16T08:35:26.886Z,988.89
2019-01-16T08:36:26.975Z,988.95
2019-01-16T08:37:27.068Z,988.97
2019-01-16T08:38:27.150Z,989.04
2019-01-16T08:39:27.245Z,988.98
2019-01-16T08:40:27.334Z,988.98
2019-01-16T08:41:27.422Z,988.97
2019-01-16T08:42:27.505Z,988.96
2019-01-16T08:43:27.602Z,988.98
2019-01-16T08:44:27.690Z,988.93
2019-01-16T08:45:27.782Z,988.90
2019-01-16T08:46:27.876Z,988.88
2019-01-16T08:47:27.957Z,988.87
2019-01-16T08:48:28.048Z,988.88
2019-01-16T08:49:28.139Z,988.79
2019-01-16T08:50:32.491Z,988.80
2019-01-16T08:51:28.317Z,988.81
2019-01-16T08:52:28.413Z,988.75
2019-01-16T08:53:28.494Z,988.76
2019-01-16T08:54:28.584Z,988.73
2019-01-16T08:55:28.664Z,988.75
2019-01-16T08:56:28.753Z,988.74
2019-01-16T08:57:28.845Z,988.78
2019-01-16T08:58:28.935Z,988.79
2019-01-16T08:59:29.010Z,988.80
2019-01-16T09:00:29.116Z,988.73
2019-01-16T09:01:32.783Z,988.81
2019-01-16T09:02:29.313Z,988.79
2019-01-16T09:03:29.386Z,988.76
2019-01-16T09:04:29.482Z,988.76
2019-01-16T09:05:29.582Z,988.81
2019-01-16T09:06:29.669Z,988.79
2019-01-16T09:07:29.765Z,988.85
2019-01-16T09:08:29.856Z,988.86
2019-01-16T09:09:29.945Z,988.79
2019-01-16T09:10:30.035Z,988.82
2019-01-16T09:11:30.165Z,988.83
2019-01-16T09:14:14.301Z,988.79
2019-01-16T09:15:14.393Z,988.81
2019-01-16T09:16:14.481Z,988.85
2019-01-16T09:17:14.574Z,988.79
2019-01-16T09:18:14.680Z,988.84
2019-01-16T09:19:14.742Z,988.83
2019-01-16T09:20:14.833Z,988.82
2019-01-16T09:21:14.914Z,988.80
2019-01-16T09:22:15.001Z,988.82
2019-01-16T09:23:15.083Z,988.78
2019-01-16T09:24:15.173Z,988.77
2019-01-16T09:25:15.275Z,988.80
2019-01-16T09:26:15.363Z,988.82
2019-01-16T09:27:15.453Z,988.84
2019-01-16T09:28:15.534Z,988.89
2019-01-16T09:29:15.625Z,988.86
2019-01-16T09:30:15.717Z,988.87
2019-01-16T09:31:15.795Z,988.87
2019-01-16T09:32:15.878Z,988.89
2019-01-16T09:33:15.967Z,988.86
2019-01-16T09:34:16.053Z,988.83
2019-01-16T09:35:16.143Z,988.80
2019-01-16T09:36:16.226Z,988.80
2019-01-16T09:37:16.326Z,988.75
2019-01-16T09:38:16.404Z,988.73
2019-01-16T09:39:16.491Z,988.65
2019-01-16T09:40:16.579Z,988.64
2019-01-16T09:41:16.669Z,988.57
2019-01-16T09:42:16.784Z,988.59
2019-01-16T09:43:16.843Z,988.56
2019-01-16T09:44:16.931Z,988.60
2019-01-16T09:45:17.021Z,988.62
2019-01-16T09:46:17.113Z,988.56
2019-01-16T09:47:17.202Z,988.56
2019-01-16T09:48:17.292Z,988.56
2019-01-16T09:49:17.381Z,988.57
2019-01-16T09:50:17.474Z,988.51
2019-01-16T09:51:17.565Z,988.46
2019-01-16T09:52:17.644Z,988.48
2019-01-16T09:53:17.735Z,988.50
2019-01-16T09:54:17.818Z,988.52
2019-01-16T09:55:17.911Z,988.55
2019-01-16T09:56:18.005Z,988.52
2019-01-16T09:57:18.135Z,988.53
2019-01-16T09:58:18.158Z,988.51
2019-01-16T09:59:18.250Z,988.46
2019-01-16T10:00:18.337Z,988.46
2019-01-16T10:01:18.428Z,988.40
2019-01-16T10:02:18.549Z,988.32
2019-01-16T10:03:18.596Z,988.28
2019-01-16T10:04:18.697Z,988.24
2019-01-16T10:05:18.771Z,988.28
2019-01-16T10:06:18.972Z,988.27
2019-01-16T10:07:18.960Z,988.21
2019-01-16T10:08:19.064Z,988.31
2019-01-16T10:09:19.129Z,988.39
2019-01-16T10:10:19.219Z,988.39
2019-01-16T10:11:19.310Z,988.38
2019-01-16T10:12:19.406Z,988.36
2019-01-16T10:13:19.483Z,988.43
2019-01-16T10:14:19.579Z,988.41
2019-01-16T10:15:19.667Z,988.40
2019-01-16T10:16:19.748Z,988.38
2019-01-16T10:17:19.928Z,988.43
2019-01-16T10:18:19.967Z,988.40
2019-01-16T10:19:20.054Z,988.45
2019-01-16T10:20:20.134Z,988.51
2019-01-16T10:21:20.221Z,988.56
2019-01-16T10:22:20.297Z,988.47
2019-01-16T10:23:20.381Z,988.48
2019-01-16T10:24:20.462Z,988.45
2019-01-16T10:25:20.569Z,988.38
2019-01-16T10:26:20.619Z,988.38
2019-01-16T10:27:20.698Z,988.30
2019-01-16T10:28:20.781Z,988.30
2019-01-16T10:29:20.881Z,988.23
2019-01-16T10:30:20.961Z,988.25
2019-01-16T10:31:21.062Z,988.34
2019-01-16T10:32:21.107Z,988.30
2019-01-16T10:33:21.188Z,988.36
2019-01-16T10:34:21.283Z,988.35
2019-01-16T10:35:21.356Z,988.37
2019-01-16T10:36:21.436Z,988.34
2019-01-16T10:37:21.513Z,988.39
2019-01-16T10:38:21.608Z,988.33
2019-01-16T10:39:21.695Z,988.35
2019-01-16T10:40:21.780Z,988.25
2019-01-16T10:41:21.864Z,988.22
2019-01-16T10:42:21.948Z,988.18
2019-01-16T10:43:22.035Z,988.16
2019-01-16T10:44:22.133Z,988.12
2019-01-16T10:45:22.231Z,988.14
2019-01-16T10:46:22.280Z,988.01
2019-01-16T10:47:22.372Z,987.91
2019-01-16T10:48:22.463Z,987.92
2019-01-16T10:49:22.551Z,987.88
2019-01-16T10:50:22.623Z,987.93
2019-01-16T10:51:22.724Z,987.97
2019-01-16T10:52:22.790Z,987.96
2019-01-16T10:53:22.876Z,987.94
2019-01-16T10:54:22.974Z,987.92
2019-01-16T10:55:23.012Z,987.92
2019-01-16T10:56:23.118Z,987.89
2019-01-16T10:57:23.199Z,987.95
2019-01-16T10:58:23.254Z,988.00
2019-01-16T10:59:23.333Z,987.95
2019-01-16T11:00:23.421Z,987.97
2019-01-16T11:01:23.515Z,987.95
2019-01-16T11:02:23.605Z,987.96
2019-01-16T11:03:23.695Z,987.90
2019-01-16T11:04:23.777Z,987.92
2019-01-16T11:05:23.870Z,987.81
2019-01-16T11:06:23.951Z,987.83
2019-01-16T11:07:24.049Z,987.82
2019-01-16T11:08:24.130Z,987.86
2019-01-16T11:09:24.225Z,987.84
2019-01-16T11:10:24.317Z,987.84
2019-01-16T11:11:24.403Z,987.80
2019-01-16T11:12:24.489Z,987.68
2019-01-16T11:13:24.592Z,987.64
2019-01-16T11:14:24.660Z,987.61
2019-01-16T11:15:24.759Z,987.56
2019-01-16T11:16:24.847Z,987.59
2019-01-16T11:17:24.949Z,987.53
2019-01-16T11:18:25.021Z,987.54
2019-01-16T11:19:25.110Z,987.51
2019-01-16T11:20:25.201Z,987.47
2019-01-16T11:21:25.290Z,987.43
2019-01-16T11:22:25.384Z,987.43
2019-01-16T11:23:25.461Z,987.44
2019-01-16T11:24:25.554Z,987.43
2019-01-16T11:25:25.640Z,987.41
2019-01-16T11:26:25.718Z,987.42
2019-01-16T11:27:25.834Z,987.36
2019-01-16T11:28:25.903Z,987.35
2019-01-16T11:29:25.986Z,987.39
2019-01-16T11:30:26.082Z,987.32
2019-01-16T11:31:26.157Z,987.31
2019-01-16T11:32:26.259Z,987.34
2019-01-16T11:33:26.332Z,987.28
2019-01-16T11:34:26.414Z,987.30
2019-01-16T11:35:26.515Z,987.27
2019-01-16T11:36:26.630Z,987.24
2019-01-16T11:37:26.724Z,987.25
2019-01-16T11:38:26.802Z,987.25
2019-01-16T11:39:26.896Z,987.20
2019-01-16T11:40:26.984Z,987.23
2019-01-16T11:41:27.073Z,987.21
2019-01-16T11:42:27.158Z,987.21
2019-01-16T11:43:27.247Z,987.22
2019-01-16T11:44:27.337Z,987.19
2019-01-16T11:45:27.422Z,987.22
2019-01-16T11:46:27.512Z,987.16
2019-01-16T11:47:27.600Z,987.19
2019-01-16T11:48:27.687Z,987.16
2019-01-16T11:49:27.775Z,987.08
2019-01-16T11:50:27.870Z,987.10
2019-01-16T11:51:33.633Z,987.06
2019-01-16T11:52:28.039Z,987.06
2019-01-16T11:53:28.143Z,987.12
2019-01-16T11:54:28.211Z,987.05
2019-01-16T11:55:28.300Z,986.97
2019-01-16T11:56:28.375Z,986.97
2019-01-16T11:57:28.480Z,987.03
2019-01-16T11:58:28.570Z,987.02
2019-01-16T11:59:29.206Z,986.98
2019-01-16T12:00:28.752Z,986.92
2019-01-16T12:01:28.836Z,986.92
2019-01-16T12:02:28.942Z,986.93
2019-01-16T12:03:29.007Z,986.89
2019-01-16T12:04:29.087Z,986.85
2019-01-16T12:05:29.174Z,986.81
2019-01-16T12:06:29.260Z,986.80
2019-01-16T12:07:29.347Z,986.80
2019-01-16T12:08:29.427Z,986.81
2019-01-16T12:09:29.515Z,986.73
2019-01-16T12:10:29.602Z,986.71
2019-01-16T12:11:29.678Z,986.77
2019-01-16T12:12:29.788Z,986.76
2019-01-16T12:13:29.859Z,986.74
2019-01-16T12:14:29.962Z,986.73
2019-01-16T12:15:30.044Z,986.68
2019-01-16T12:16:30.127Z,986.64
2019-01-16T12:17:30.222Z,986.61
2019-01-16T12:18:30.313Z,986.60
2019-01-16T12:19:30.392Z,986.67
2019-01-16T12:20:30.482Z,986.61
2019-01-16T12:21:30.570Z,986.55
2019-01-16T12:22:30.657Z,986.55
2019-01-16T12:23:30.743Z,986.50
2019-01-16T12:24:30.862Z,986.52
2019-01-16T12:25:30.936Z,986.44
2019-01-16T12:26:31.080Z,986.46
2019-01-16T12:27:31.107Z,986.47
2019-01-16T12:28:31.175Z,986.38
2019-01-16T12:29:31.294Z,986.36
2019-01-16T12:30:31.354Z,986.32
2019-01-16T12:31:31.436Z,986.41
2019-01-16T12:32:31.501Z,986.29
2019-01-16T12:33:31.589Z,986.33
2019-01-16T12:34:31.689Z,986.30
2019-01-16T12:35:31.759Z,986.25